Time;durP1;ratioP1;P1;durP2;ratioP2;P2;SDS_P1;SDS_P2;PMS_P1;PMS_P2;Temp;Humidity;BMP_temperature;BMP_pressure;BME280_temperature;BME280_humidity;BME280_pressure;Samples;Min_cycle;Max_cycle;Signal;HPM_P1;HPM_P2
2022/03/16 00:02:03;;;;;;;39.30;24.30;;;6.60;99.90;;;;;;4915885;29;20086;-69
2022/03/16 00:04:29;;;;;;;36.63;24.17;;;6.50;99.90;;;;;;4916689;29;20031;-69
2022/03/16 00:06:55;;;;;;;34.70;21.60;;;6.50;99.90;;;;;;4916215;29;20094;-69
2022/03/16 00:09:20;;;;;;;41.95;25.67;;;6.50;99.90;;;;;;4913490;29;20050;-69
2022/03/16 00:11:46;;;;;;;43.97;26.30;;;6.50;99.90;;;;;;4900800;29;20150;-69
2022/03/16 00:14:12;;;;;;;42.22;24.65;;;6.50;99.90;;;;;;4916108;29;20381;-69
2022/03/16 00:16:37;;;;;;;40.30;24.33;;;6.40;99.90;;;;;;4916180;29;20043;-69
2022/03/16 00:19:03;;;;;;;36.25;22.83;;;6.40;99.90;;;;;;4916374;29;20051;-69
2022/03/16 00:21:29;;;;;;;40.25;23.95;;;6.40;99.90;;;;;;4899706;29;20070;-69
2022/03/16 00:23:55;;;;;;;39.22;24.95;;;6.30;99.90;;;;;;4900579;29;20106;-69
2022/03/16 00:26:20;;;;;;;44.00;26.58;;;6.30;99.90;;;;;;4915720;29;20075;-69
2022/03/16 00:28:46;;;;;;;40.95;24.40;;;6.40;99.90;;;;;;4916463;29;20127;-69
2022/03/16 00:31:12;;;;;;;38.75;23.27;;;6.30;99.90;;;;;;4933584;29;20495;-69
2022/03/16 00:33:38;;;;;;;36.63;23.48;;;6.30;99.90;;;;;;4916541;29;20104;-69
2022/03/16 00:36:04;;;;;;;37.88;22.88;;;6.20;99.90;;;;;;4916224;29;20113;-69
2022/03/16 00:38:30;;;;;;;37.30;24.33;;;6.20;99.90;;;;;;4915721;29;20040;-69
2022/03/16 00:40:56;;;;;;;35.08;22.27;;;6.10;99.90;;;;;;4900204;29;20047;-68
2022/03/16 00:43:21;;;;;;;39.08;24.05;;;6.10;99.90;;;;;;4916011;29;20456;-69
2022/03/16 00:45:47;;;;;;;39.88;24.70;;;6.10;99.90;;;;;;4915964;29;20079;-69
2022/03/16 00:48:13;;;;;;;41.50;24.02;;;6.10;99.90;;;;;;4915288;29;20040;-70
2022/03/16 00:50:38;;;;;;;38.65;24.30;;;6.10;99.90;;;;;;4915506;29;20116;-70
2022/03/16 00:53:04;;;;;;;39.13;25.20;;;6.10;99.90;;;;;;4915253;29;20040;-70
2022/03/16 00:55:30;;;;;;;39.65;23.95;;;6.10;99.90;;;;;;4915458;29;20119;-70
2022/03/16 00:57:55;;;;;;;42.15;25.02;;;6.10;99.90;;;;;;4915690;29;20044;-70
2022/03/16 01:00:21;;;;;;;44.15;25.92;;;6.10;99.90;;;;;;4915518;29;20142;-69
2022/03/16 01:02:47;;;;;;;38.17;23.75;;;6.00;99.90;;;;;;4932759;29;20082;-70
2022/03/16 01:05:12;;;;;;;33.20;21.90;;;6.00;99.90;;;;;;4915279;29;20035;-70
2022/03/16 01:07:38;;;;;;;29.98;19.83;;;6.00;99.90;;;;;;4893835;29;20036;-70
2022/03/16 01:10:05;;;;;;;36.83;23.48;;;5.90;99.90;;;;;;4899863;29;20134;-70
2022/03/16 01:12:30;;;;;;;;;;;5.90;99.90;;;;;;4909463;29;20075;-70
2022/03/16 01:14:56;;;;;;;40.40;25.45;;;5.90;99.90;;;;;;4915067;29;19918;-70
2022/03/16 01:17:21;;;;;;;37.78;22.67;;;5.80;99.90;;;;;;4915426;29;20044;-70
2022/03/16 01:19:47;;;;;;;38.83;23.55;;;5.80;99.90;;;;;;4915591;29;20048;-70
2022/03/16 01:22:13;;;;;;;36.08;21.65;;;5.80;99.90;;;;;;4899176;29;20480;-70
2022/03/16 01:24:39;;;;;;;40.10;23.25;;;5.80;99.90;;;;;;4915276;29;20187;-70
2022/03/16 01:27:05;;;;;;;34.40;22.20;;;5.80;99.90;;;;;;4915274;29;20043;-70
2022/03/16 01:29:31;;;;;;;32.10;20.85;;;5.80;99.90;;;;;;4915047;29;20044;-70
2022/03/16 01:31:57;;;;;;;32.67;19.52;;;5.70;99.90;;;;;;4916050;29;20047;-69
2022/03/16 01:34:23;;;;;;;23.92;16.50;;;5.60;99.90;;;;;;4915404;29;20478;-69
2022/03/16 01:36:49;;;;;;;25.42;17.50;;;5.60;99.90;;;;;;4875155;29;20044;-70
2022/03/16 01:39:15;;;;;;;24.42;15.60;;;5.50;99.90;;;;;;4911912;29;20051;-70
2022/03/16 01:41:42;;;;;;;24.95;16.05;;;5.50;99.90;;;;;;4915047;29;20075;-70
2022/03/16 01:44:10;;;;;;;22.95;15.32;;;5.40;99.90;;;;;;4915078;29;20043;-70
2022/03/16 01:46:35;;;;;;;27.55;16.42;;;5.40;99.90;;;;;;4898531;29;20131;-70
2022/03/16 01:49:03;;;;;;;27.17;17.23;;;5.40;99.90;;;;;;4914558;29;20171;-70
2022/03/16 01:51:30;;;;;;;23.83;15.35;;;5.40;99.90;;;;;;4916613;29;20055;-70
2022/03/16 01:53:55;;;;;;;20.80;13.82;;;5.30;99.90;;;;;;4918453;29;20031;-70
2022/03/16 01:56:21;;;;;;;19.42;13.07;;;5.20;99.90;;;;;;4918439;29;20419;-70
2022/03/16 01:58:47;;;;;;;17.02;11.65;;;5.20;99.90;;;;;;4918251;29;20067;-69
2022/03/16 02:01:15;;;;;;;23.02;13.30;;;5.20;99.90;;;;;;4914601;29;20473;-69
2022/03/16 02:03:42;;;;;;;21.00;13.35;;;5.20;99.90;;;;;;4910217;29;20078;-70
2022/03/16 02:06:09;;;;;;;20.88;12.98;;;5.10;99.90;;;;;;4917493;29;20400;-69
2022/03/16 02:08:40;;;;;;;19.60;12.35;;;5.10;99.90;;;;;;4902471;29;20043;-69
2022/03/16 02:11:06;;;;;;;16.08;10.52;;;5.00;99.90;;;;;;4918149;29;20048;-69
2022/03/16 02:13:36;;;;;;;17.45;11.63;;;5.00;99.90;;;;;;4918702;29;20050;-69
2022/03/16 02:16:03;;;;;;;14.00;9.73;;;5.00;99.90;;;;;;4911270;29;20048;-69
2022/03/16 02:18:28;;;;;;;12.95;8.65;;;4.90;99.90;;;;;;4916536;29;20049;-69
2022/03/16 02:20:56;;;;;;;41.83;25.35;;;4.80;99.90;;;;;;4902442;29;20052;-70
2022/03/16 02:23:22;;;;;;;34.72;21.63;;;4.80;99.90;;;;;;4917912;29;20066;-69
2022/03/16 02:25:52;;;;;;;33.85;21.17;;;4.90;99.90;;;;;;4918152;29;20391;-69
2022/03/16 02:28:19;;;;;;;23.92;15.70;;;4.80;99.90;;;;;;4918078;29;20053;-69
2022/03/16 02:30:44;;;;;;;21.73;14.55;;;4.80;99.90;;;;;;4917861;29;20491;-68
2022/03/16 02:33:10;;;;;;;20.00;12.45;;;4.80;99.90;;;;;;4917472;29;20095;-68
2022/03/16 02:35:36;;;;;;;19.65;11.55;;;4.70;99.90;;;;;;4917911;29;20105;-68
2022/03/16 02:38:03;;;;;;;16.55;10.95;;;4.70;99.90;;;;;;4917282;29;20045;-68
2022/03/16 02:40:29;;;;;;;;;;;4.60;99.90;;;;;;4902955;29;20098;-69
2022/03/16 02:42:55;;;;;;;19.42;12.65;;;4.50;99.90;;;;;;4901866;29;19958;-69
2022/03/16 02:45:20;;;;;;;18.23;11.70;;;4.40;99.90;;;;;;4900427;29;20042;-69
2022/03/16 02:47:47;;;;;;;16.38;10.77;;;4.30;99.90;;;;;;4899189;29;20522;-69
2022/03/16 02:50:13;;;;;;;16.00;10.50;;;4.30;99.90;;;;;;4899007;29;20091;-69
2022/03/16 02:52:41;;;;;;;14.32;8.70;;;4.10;99.90;;;;;;4917480;29;20495;-69
2022/03/16 02:55:07;;;;;;;12.68;7.95;;;4.10;99.90;;;;;;4901665;29;20499;-69
2022/03/16 02:57:34;;;;;;;13.73;9.13;;;4.00;99.90;;;;;;4917466;29;20122;-69
2022/03/16 03:00:00;;;;;;;13.35;8.40;;;4.00;99.90;;;;;;4899585;29;20052;-69
2022/03/16 03:02:26;;;;;;;14.55;9.18;;;4.00;99.90;;;;;;4913055;29;20507;-69
2022/03/16 03:04:51;;;;;;;13.02;8.65;;;3.80;99.90;;;;;;4916714;29;20051;-69
2022/03/16 03:07:17;;;;;;;13.10;8.95;;;3.80;99.90;;;;;;4916497;29;20051;-69
2022/03/16 03:09:43;;;;;;;15.15;9.00;;;3.80;99.90;;;;;;4902246;29;20491;-69
2022/03/16 03:12:09;;;;;;;16.05;10.45;;;3.90;99.90;;;;;;4917293;29;21873;-69
2022/03/16 03:14:35;;;;;;;14.23;9.50;;;3.90;99.90;;;;;;4916474;29;20127;-69
2022/03/16 03:17:02;;;;;;;13.52;9.48;;;3.80;99.90;;;;;;4916986;29;20126;-69
2022/03/16 03:19:28;;;;;;;13.35;8.35;;;3.80;99.90;;;;;;4917386;29;20086;-69
2022/03/16 03:21:54;;;;;;;12.20;8.27;;;3.80;99.90;;;;;;4915861;29;20452;-69
2022/03/16 03:24:20;;;;;;;11.50;7.72;;;3.80;99.90;;;;;;4917578;29;20044;-69
2022/03/16 03:26:45;;;;;;;10.80;7.03;;;3.70;99.90;;;;;;4916698;29;20062;-69
2022/03/16 03:29:13;;;;;;;14.55;9.38;;;3.70;99.90;;;;;;4901034;29;20046;-68
2022/03/16 03:31:38;;;;;;;15.77;10.60;;;3.70;99.90;;;;;;4916222;29;20138;-69
2022/03/16 03:34:04;;;;;;;20.50;12.57;;;3.70;99.90;;;;;;4916135;29;20131;-69
2022/03/16 03:36:30;;;;;;;15.82;9.95;;;3.70;99.90;;;;;;4916532;29;20046;-70
2022/03/16 03:38:56;;;;;;;14.10;9.65;;;3.70;99.90;;;;;;4934334;29;20100;-69
2022/03/16 03:41:21;;;;;;;13.95;9.25;;;3.80;99.90;;;;;;4916760;29;20079;-69
2022/03/16 03:43:47;;;;;;;14.57;9.43;;;3.70;99.90;;;;;;4916510;29;20583;-69
2022/03/16 03:46:13;;;;;;;14.52;9.07;;;3.80;99.90;;;;;;4900731;29;20127;-69
2022/03/16 03:48:39;;;;;;;11.77;8.15;;;3.80;99.90;;;;;;4933585;29;20044;-68
2022/03/16 03:51:05;;;;;;;11.93;7.43;;;3.80;99.90;;;;;;4916573;29;20491;-69
2022/03/16 03:53:30;;;;;;;12.32;7.57;;;3.70;99.90;;;;;;4916461;29;20097;-69
2022/03/16 03:55:56;;;;;;;12.37;8.07;;;3.70;99.90;;;;;;4933493;29;20139;-69
2022/03/16 03:58:22;;;;;;;13.40;8.82;;;3.60;99.90;;;;;;4933670;29;20363;-68
2022/03/16 04:00:49;;;;;;;14.70;9.47;;;3.60;99.90;;;;;;4933813;29;20062;-69
2022/03/16 04:03:15;;;;;;;14.65;9.45;;;3.60;99.90;;;;;;4916119;29;20299;-69
2022/03/16 04:05:41;;;;;;;24.35;15.13;;;3.50;99.90;;;;;;4916391;29;21117;-69
2022/03/16 04:08:06;;;;;;;26.42;17.17;;;3.60;99.90;;;;;;4914807;29;20051;-69
2022/03/16 04:10:32;;;;;;;31.35;19.42;;;3.60;99.90;;;;;;4916234;29;20062;-68
2022/03/16 04:12:58;;;;;;;31.67;19.60;;;3.80;99.90;;;;;;4915822;29;20039;-69
2022/03/16 04:15:23;;;;;;;32.75;19.65;;;4.00;99.90;;;;;;4916144;29;20070;-68
2022/03/16 04:17:49;;;;;;;31.33;20.20;;;4.10;99.90;;;;;;4916446;29;20043;-70
2022/03/16 04:20:17;;;;;;;31.63;19.50;;;4.20;99.90;;;;;;4915902;29;20143;-69
2022/03/16 04:22:43;;;;;;;32.85;20.00;;;4.20;99.90;;;;;;4900139;29;20039;-68
2022/03/16 04:25:09;;;;;;;26.35;17.05;;;4.20;99.90;;;;;;4933311;29;20036;-69
2022/03/16 04:27:35;;;;;;;29.90;18.10;;;4.20;99.90;;;;;;4916171;29;20083;-70
2022/03/16 04:30:00;;;;;;;27.40;17.63;;;4.20;99.90;;;;;;4915948;29;20059;-69
2022/03/16 04:32:26;;;;;;;34.77;21.53;;;4.30;99.90;;;;;;4915915;29;20075;-69
2022/03/16 04:34:51;;;;;;;39.53;22.47;;;4.30;99.90;;;;;;4933296;29;20288;-69
2022/03/16 04:37:17;;;;;;;37.67;22.17;;;4.30;99.90;;;;;;4915873;29;20295;-69
2022/03/16 04:39:43;;;;;;;32.30;20.15;;;4.30;99.90;;;;;;4897025;29;20532;-69
2022/03/16 04:42:08;;;;;;;30.15;18.73;;;4.30;99.90;;;;;;4896488;29;20152;-69
2022/03/16 04:44:34;;;;;;;33.25;20.80;;;4.30;99.90;;;;;;4932851;29;20047;-69
2022/03/16 04:47:00;;;;;;;26.97;17.53;;;4.20;99.90;;;;;;4915070;29;20168;-69
2022/03/16 04:49:25;;;;;;;24.93;15.60;;;4.30;99.90;;;;;;4915409;29;20346;-69
2022/03/16 04:51:51;;;;;;;20.17;13.20;;;4.20;99.90;;;;;;4915846;29;20287;-69
2022/03/16 04:54:16;;;;;;;21.27;13.52;;;4.20;99.90;;;;;;4915765;29;20291;-70
2022/03/16 04:56:42;;;;;;;20.38;13.02;;;4.10;99.90;;;;;;4915542;29;20443;-69
2022/03/16 04:59:08;;;;;;;20.42;12.65;;;4.10;99.90;;;;;;4908895;29;20123;-69
2022/03/16 05:01:34;;;;;;;20.02;13.07;;;4.20;99.90;;;;;;4913863;29;20048;-69
2022/03/16 05:04:00;;;;;;;27.83;16.60;;;4.20;99.90;;;;;;4915757;29;20165;-69
2022/03/16 05:06:26;;;;;;;26.48;17.50;;;4.20;99.90;;;;;;4882936;29;20056;-69
2022/03/16 05:08:51;;;;;;;26.75;16.65;;;4.20;99.90;;;;;;4915579;29;20040;-69
2022/03/16 05:11:21;;;;;;;23.30;15.32;;;4.20;99.90;;;;;;4899468;29;20067;-69
2022/03/16 05:13:47;;;;;;;19.05;12.43;;;4.20;99.90;;;;;;4914985;29;20066;-69
2022/03/16 05:16:13;;;;;;;19.20;12.43;;;4.10;99.90;;;;;;4900205;29;20047;-69
2022/03/16 05:18:40;;;;;;;17.05;11.32;;;4.10;99.90;;;;;;4915566;29;20478;-69
2022/03/16 05:21:09;;;;;;;16.83;10.95;;;4.10;99.90;;;;;;4932607;29;20039;-69
2022/03/16 05:23:35;;;;;;;14.85;9.90;;;4.10;99.90;;;;;;4898239;29;20048;-69
2022/03/16 05:26:01;;;;;;;18.33;11.55;;;4.10;99.90;;;;;;4918250;29;20099;-69
2022/03/16 05:28:26;;;;;;;23.52;14.07;;;4.10;99.90;;;;;;4919366;29;20055;-69
2022/03/16 05:30:52;;;;;;;26.65;15.65;;;4.10;99.90;;;;;;4918947;29;20047;-69
2022/03/16 05:33:18;;;;;;;27.85;17.42;;;4.10;99.90;;;;;;4903281;29;20431;-69
2022/03/16 05:35:43;;;;;;;27.23;17.70;;;4.10;99.90;;;;;;4918726;29;20111;-68
2022/03/16 05:38:12;;;;;;;32.17;20.30;;;4.10;99.90;;;;;;4903270;29;20050;-69
2022/03/16 05:40:42;;;;;;;32.58;20.00;;;4.10;99.90;;;;;;4918846;29;20115;-69
2022/03/16 05:43:09;;;;;;;34.10;20.92;;;4.20;99.90;;;;;;4898478;29;20040;-69
2022/03/16 05:45:35;;;;;;;28.80;17.52;;;4.20;99.90;;;;;;4917690;29;20107;-69
2022/03/16 05:48:01;;;;;;;23.00;14.65;;;4.20;99.90;;;;;;4918039;29;20039;-69
2022/03/16 05:50:28;;;;;;;23.08;14.50;;;4.30;99.90;;;;;;4918536;29;20407;-69
2022/03/16 05:53:03;;;;;;;23.23;14.38;;;4.30;99.90;;;;;;4913616;29;20055;-69
2022/03/16 05:55:29;;;;;;;22.00;14.18;;;4.20;99.90;;;;;;4918899;29;20039;-70
2022/03/16 05:57:55;;;;;;;27.35;14.57;;;4.30;99.90;;;;;;4918686;29;20115;-71
2022/03/16 06:00:22;;;;;;;27.00;16.52;;;4.30;99.90;;;;;;4903396;29;20050;-72
2022/03/16 06:02:49;;;;;;;30.02;18.85;;;4.30;99.90;;;;;;4901657;29;20043;-71
2022/03/16 06:05:15;;;;;;;34.25;21.13;;;4.30;99.90;;;;;;4910568;29;20047;-70
2022/03/16 06:07:42;;;;;;;;;;;4.40;99.90;;;;;;4902991;29;20059;-71
2022/03/16 06:10:15;;;;;;;32.15;20.35;;;4.40;99.90;;;;;;4910235;29;19918;-71
2022/03/16 06:13:04;;;;;;;35.38;21.35;;;4.40;99.90;;;;;;4912546;29;20130;-71
2022/03/16 06:15:38;;;;;;;34.83;22.27;;;4.60;99.90;;;;;;4909578;29;20051;-70
2022/03/16 06:18:04;;;;;;;32.85;21.17;;;4.60;99.90;;;;;;4934556;29;20036;-70
2022/03/16 06:20:30;;;;;;;33.17;21.30;;;4.70;99.90;;;;;;4919535;29;20099;-71
2022/03/16 06:22:56;;;;;;;39.65;23.92;;;4.80;99.90;;;;;;4918423;29;20050;-70
2022/03/16 06:25:24;;;;;;;35.53;23.30;;;4.80;99.90;;;;;;4918008;29;20032;-70
2022/03/16 06:27:51;;;;;;;34.20;21.52;;;4.90;99.90;;;;;;4899656;29;20047;-71
2022/03/16 06:30:16;;;;;;;31.38;20.67;;;4.90;99.90;;;;;;4915783;29;20043;-70
2022/03/16 06:32:46;;;;;;;29.73;20.45;;;4.90;99.90;;;;;;4901850;29;20372;-71
2022/03/16 06:35:12;;;;;;;32.60;21.95;;;4.90;99.90;;;;;;4916808;29;20048;-72
2022/03/16 06:37:38;;;;;;;31.38;21.27;;;5.00;99.90;;;;;;4896690;29;20099;-71
2022/03/16 06:40:05;;;;;;;30.33;20.27;;;5.00;99.90;;;;;;4901533;29;20059;-71
2022/03/16 06:42:31;;;;;;;30.98;20.40;;;5.00;99.90;;;;;;4917664;29;20052;-71
2022/03/16 06:44:57;;;;;;;31.02;20.83;;;5.00;99.90;;;;;;4917535;29;20349;-70
2022/03/16 06:47:22;;;;;;;30.73;21.20;;;5.10;99.90;;;;;;4906227;29;20139;-71
2022/03/16 06:49:48;;;;;;;31.92;20.17;;;5.00;99.90;;;;;;4914223;29;20413;-71
2022/03/16 06:52:14;;;;;;;22.95;16.17;;;5.10;99.90;;;;;;4917011;29;20202;-70
2022/03/16 06:54:39;;;;;;;28.13;17.05;;;5.10;99.90;;;;;;4917581;29;20127;-70
2022/03/16 06:57:05;;;;;;;27.65;17.35;;;5.00;99.90;;;;;;4915986;29;20071;-70
2022/03/16 06:59:31;;;;;;;31.13;21.33;;;5.10;99.90;;;;;;4900862;29;20083;-70
2022/03/16 07:01:57;;;;;;;38.03;25.00;;;5.20;99.90;;;;;;4915479;29;20043;-70
2022/03/16 07:04:23;;;;;;;35.50;21.95;;;5.10;99.90;;;;;;4915880;29;20039;-70
2022/03/16 07:06:50;;;;;;;37.53;24.00;;;5.20;99.90;;;;;;4894070;29;20484;-70
2022/03/16 07:09:15;;;;;;;35.45;23.73;;;5.20;99.90;;;;;;4916538;29;20075;-69
2022/03/16 07:11:41;;;;;;;33.88;22.60;;;5.20;99.90;;;;;;4900682;29;20592;-69
2022/03/16 07:16:51;;;;;;;37.40;24.55;;;5.30;99.90;;;;;;4903874;29;20059;-69
2022/03/16 07:19:16;;;;;;;38.67;23.90;;;5.40;99.90;;;;;;4916950;29;20055;-69
2022/03/16 07:21:42;;;;;;;31.48;20.98;;;5.30;99.90;;;;;;4901964;29;20306;-69
2022/03/16 07:24:08;;;;;;;35.90;23.48;;;5.40;99.90;;;;;;4917275;29;20491;-69
2022/03/16 07:26:37;;;;;;;36.60;22.90;;;5.40;99.90;;;;;;4901844;29;20054;-69
2022/03/16 07:29:02;;;;;;;37.05;24.58;;;5.50;99.90;;;;;;4917253;29;20039;-69
2022/03/16 07:31:28;;;;;;;37.20;24.33;;;5.60;99.90;;;;;;4916822;29;20040;-68
2022/03/16 07:33:54;;;;;;;34.22;21.77;;;5.60;99.90;;;;;;4916881;29;20055;-69
2022/03/16 07:36:20;;;;;;;30.27;19.88;;;5.80;99.90;;;;;;4899537;29;20062;-69
2022/03/16 07:38:46;;;;;;;38.08;25.85;;;5.90;99.90;;;;;;4916731;29;20056;-69
2022/03/16 07:41:11;;;;;;;37.42;23.80;;;5.90;99.90;;;;;;4916394;29;20087;-69
2022/03/16 07:43:37;;;;;;;35.67;23.02;;;6.10;99.90;;;;;;4901153;29;20051;-69
2022/03/16 07:46:03;;;;;;;35.72;23.17;;;6.10;99.90;;;;;;4916611;29;20103;-69
2022/03/16 07:48:29;;;;;;;40.08;25.65;;;6.10;99.90;;;;;;4899522;29;20047;-69
2022/03/16 07:50:55;;;;;;;38.63;25.92;;;6.20;99.90;;;;;;4916739;29;20115;-70
2022/03/16 07:53:21;;;;;;;39.25;25.88;;;6.30;99.90;;;;;;4916591;29;20043;-69
2022/03/16 07:55:48;;;;;;;37.63;25.05;;;6.30;99.90;;;;;;4916433;29;20154;-69
2022/03/16 07:58:13;;;;;;;37.45;25.08;;;6.40;99.90;;;;;;4933500;29;20480;-69
2022/03/16 08:00:39;;;;;;;35.58;23.55;;;6.50;99.90;;;;;;4916701;29;20051;-69
2022/03/16 08:03:05;;;;;;;32.42;21.95;;;6.50;99.90;;;;;;4916514;29;20040;-69
2022/03/16 08:05:31;;;;;;;33.83;23.33;;;6.70;99.90;;;;;;4916140;29;20036;-69
2022/03/16 08:07:57;;;;;;;;;;;6.70;99.90;;;;;;4917078;29;20083;-69
2022/03/16 08:10:23;;;;;;;37.83;25.10;;;6.80;99.90;;;;;;4916707;29;19965;-70
2022/03/16 08:12:49;;;;;;;37.35;24.65;;;7.00;99.90;;;;;;4933882;29;20443;-71
2022/03/16 08:15:15;;;;;;;35.95;23.92;;;7.10;99.90;;;;;;4916644;29;20134;-72
2022/03/16 08:17:40;;;;;;;36.20;23.48;;;7.20;99.90;;;;;;4916514;29;20112;-71
2022/03/16 08:20:06;;;;;;;32.88;22.08;;;7.30;99.90;;;;;;4916711;29;20047;-71
2022/03/16 08:22:35;;;;;;;34.05;22.73;;;7.40;99.90;;;;;;4900354;29;20051;-72
2022/03/16 08:25:03;;;;;;;32.05;22.55;;;7.50;99.90;;;;;;4900702;29;20479;-72
2022/03/16 08:27:29;;;;;;;29.27;21.60;;;7.60;99.90;;;;;;4916001;29;20126;-71
2022/03/16 08:29:55;;;;;;;31.45;22.13;;;7.60;99.90;;;;;;4891519;29;20114;-71
2022/03/16 08:32:22;;;;;;;32.63;22.70;;;7.70;99.90;;;;;;4914896;29;20179;-72
2022/03/16 08:34:48;;;;;;;;;;;7.80;99.90;;;;;;4885654;29;20059;-72
2022/03/16 08:37:14;;;;;;;31.92;22.00;;;7.80;99.90;;;;;;4900503;29;19923;-72
2022/03/16 08:39:41;;;;;;;33.58;23.05;;;7.90;99.90;;;;;;4916051;29;20134;-71
2022/03/16 08:42:07;;;;;;;;;;;8.00;99.90;;;;;;4916809;29;20085;-69
2022/03/16 08:44:32;;;;;;;28.98;21.25;;;8.10;99.90;;;;;;4903175;29;20401;-69
2022/03/16 08:46:58;;;;;;;30.73;22.35;;;8.20;99.90;;;;;;4915630;29;20518;-69
2022/03/16 08:49:24;;;;;;;29.55;21.45;;;8.30;99.90;;;;;;4915467;29;20443;-69
2022/03/16 08:51:50;;;;;;;29.60;20.98;;;8.40;99.90;;;;;;4915677;29;20136;-69
2022/03/16 08:54:16;;;;;;;28.60;20.98;;;8.40;99.90;;;;;;4915973;29;20138;-69
2022/03/16 08:56:43;;;;;;;28.02;20.25;;;8.50;99.90;;;;;;4915599;29;20106;-69
2022/03/16 08:59:09;;;;;;;;;;;8.60;99.90;;;;;;4915928;29;20491;-69
2022/03/16 09:01:35;;;;;;;31.10;21.92;;;8.80;99.90;;;;;;4915410;29;19973;-70
2022/03/16 09:04:02;;;;;;;28.90;20.80;;;8.80;99.90;;;;;;4932822;29;20039;-70
2022/03/16 09:06:28;;;;;;;30.05;20.27;;;8.90;99.90;;;;;;4915846;29;20040;-70
2022/03/16 09:08:54;;;;;;;28.75;20.02;;;9.00;99.90;;;;;;4915735;29;20039;-70
2022/03/16 09:11:20;;;;;;;26.95;18.52;;;9.10;99.90;;;;;;4915548;29;20050;-69
2022/03/16 09:13:47;;;;;;;28.60;20.45;;;9.20;99.90;;;;;;4915721;29;20047;-70
2022/03/16 09:16:14;;;;;;;26.65;19.77;;;9.30;99.90;;;;;;4899947;29;20056;-69
2022/03/16 09:18:40;;;;;;;28.65;19.45;;;9.40;99.90;;;;;;4892312;29;20483;-69
2022/03/16 09:21:06;;;;;;;27.75;20.15;;;9.60;99.90;;;;;;4932804;29;20033;-70
2022/03/16 09:23:32;;;;;;;27.30;20.33;;;9.70;99.90;;;;;;4915803;29;20103;-70
2022/03/16 09:26:01;;;;;;;26.25;18.90;;;9.90;99.90;;;;;;4899782;29;20051;-69
2022/03/16 09:28:28;;;;;;;33.85;20.95;;;10.10;99.90;;;;;;4915683;29;20079;-69
2022/03/16 09:30:54;;;;;;;32.45;22.10;;;10.10;99.90;;;;;;4915739;29;20534;-69
2022/03/16 09:33:22;;;;;;;31.08;21.70;;;10.20;99.90;;;;;;4915555;29;20039;-71
2022/03/16 09:35:54;;;;;;;30.95;21.25;;;10.20;99.90;;;;;;4915962;29;20051;-69
2022/03/16 09:38:20;;;;;;;29.92;21.55;;;10.20;99.90;;;;;;4916163;29;20074;-69
2022/03/16 09:41:01;;;;;;;29.50;21.08;;;10.20;99.90;;;;;;4915644;29;20578;-70
2022/03/16 09:43:30;;;;;;;29.52;21.17;;;10.30;99.90;;;;;;4911480;29;20048;-70
2022/03/16 09:46:15;;;;;;;28.52;20.08;;;10.40;99.90;;;;;;4899464;29;20485;-69
2022/03/16 09:48:41;;;;;;;29.92;19.83;;;10.60;99.90;;;;;;4933102;29;20055;-69
2022/03/16 09:51:11;;;;;;;30.17;20.75;;;10.70;99.90;;;;;;4915563;29;20051;-70
2022/03/16 09:53:38;;;;;;;24.20;18.63;;;10.70;99.90;;;;;;4916149;29;20043;-70
2022/03/16 09:56:08;;;;;;;28.17;19.13;;;10.90;99.90;;;;;;4892354;29;20044;-70
2022/03/16 09:58:35;;;;;;;24.80;17.70;;;10.90;99.90;;;;;;4915651;29;20066;-69
2022/03/16 10:01:05;;;;;;;24.67;17.77;;;10.90;99.90;;;;;;4896924;29;20048;-69
2022/03/16 10:03:31;;;;;;;22.88;17.05;;;11.00;99.90;;;;;;4914828;29;20138;-70
2022/03/16 10:05:58;;;;;;;21.42;15.88;;;11.10;99.90;;;;;;4914865;29;20511;-70
2022/03/16 10:08:30;;;;;;;21.00;15.27;;;11.10;99.90;;;;;;4914636;29;20399;-70
2022/03/16 10:14:14;;;;;;;20.15;14.57;;;11.40;99.90;;;;;;4914081;29;20063;-70
2022/03/16 10:19:52;;;;;;;17.30;13.52;;;11.50;99.90;;;;;;4912360;29;20051;-70
2022/03/16 10:22:23;;;;;;;;;;;11.70;99.90;;;;;;4918598;29;20432;-70
2022/03/16 10:24:49;;;;;;;17.23;12.57;;;11.60;99.90;;;;;;4911284;29;19926;-70
2022/03/16 10:27:17;;;;;;;19.25;13.32;;;11.70;99.90;;;;;;4917716;29;20099;-70
2022/03/16 10:29:44;;;;;;;20.88;13.48;;;11.90;99.90;;;;;;4917866;29;20047;-70
2022/03/16 10:32:10;;;;;;;18.80;13.02;;;12.00;99.90;;;;;;4918040;29;20063;-70
2022/03/16 10:34:48;;;;;;;17.58;12.57;;;12.00;99.90;;;;;;4901368;29;20527;-69
2022/03/16 10:37:20;;;;;;;16.30;12.27;;;12.00;99.90;;;;;;4917863;29;20487;-70
2022/03/16 10:39:48;;;;;;;16.90;12.30;;;12.10;99.90;;;;;;4917627;29;20044;-69
2022/03/16 10:48:22;;;;;;;18.45;11.80;;;12.40;99.90;;;;;;4917226;29;20551;-70
2022/03/16 10:50:50;;;;;;;14.32;10.93;;;12.60;99.90;;;;;;4917389;29;20130;-69
2022/03/16 10:53:18;;;;;;;14.15;11.23;;;12.60;99.90;;;;;;4934512;29;20047;-69
2022/03/16 10:55:47;;;;;;;14.75;10.80;;;12.70;99.90;;;;;;4901173;29;20117;-69
2022/03/16 10:58:14;;;;;;;13.10;10.90;;;12.80;99.90;;;;;;4917243;29;20070;-69
2022/03/16 11:00:41;;;;;;;15.82;10.73;;;13.00;99.90;;;;;;4916782;29;20051;-69
2022/03/16 11:03:09;;;;;;;13.43;9.55;;;13.10;99.90;;;;;;4916984;29;20542;-70
2022/03/16 11:05:40;;;;;;;13.80;10.10;;;13.10;99.90;;;;;;4917032;29;20083;-70
2022/03/16 11:08:09;;;;;;;14.45;9.20;;;13.30;99.90;;;;;;4916883;29;20123;-69
2022/03/16 11:10:40;;;;;;;11.80;9.38;;;13.60;99.90;;;;;;4910061;29;20407;-69
2022/03/16 11:15:53;;;;;;;13.85;9.25;;;14.00;99.90;;;;;;4910731;29;20130;-70
2022/03/16 11:18:19;;;;;;;14.02;10.10;;;14.00;99.40;;;;;;4900691;29;20048;-69
2022/03/16 11:20:53;;;;;;;13.77;10.45;;;13.90;99.10;;;;;;4916387;29;20039;-70
2022/03/16 11:26:36;;;;;;;15.27;10.07;;;14.20;99.90;;;;;;4916391;29;20562;-69
2022/03/16 11:29:05;;;;;;;13.15;10.07;;;14.50;99.60;;;;;;4911361;29;20052;-70
2022/03/16 11:31:31;;;;;;;15.68;10.70;;;14.40;98.90;;;;;;4913641;29;20473;-70
2022/03/16 11:33:59;;;;;;;12.77;9.82;;;14.50;98.60;;;;;;4916445;29;20468;-70
2022/03/16 11:36:34;;;;;;;15.88;10.77;;;14.60;98.00;;;;;;4916172;29;20090;-70
2022/03/16 11:39:03;;;;;;;16.90;11.27;;;14.70;98.00;;;;;;4909013;29;20103;-70
2022/03/16 11:41:33;;;;;;;13.52;10.15;;;14.70;97.70;;;;;;4916053;29;20526;-70
2022/03/16 11:44:28;;;;;;;13.48;10.43;;;14.80;96.70;;;;;;4907962;29;20055;-70
2022/03/16 11:47:16;;;;;;;14.55;10.45;;;15.00;96.80;;;;;;4916004;29;20055;-69
2022/03/16 11:49:45;;;;;;;;;;;15.10;96.90;;;;;;4901041;29;20387;-70
2022/03/16 11:52:11;;;;;;;15.00;10.80;;;15.00;95.60;;;;;;4897238;29;19979;-69
2022/03/16 11:54:48;;;;;;;13.55;10.23;;;15.20;96.20;;;;;;4911494;29;20059;-70
2022/03/16 11:57:34;;;;;;;15.05;10.45;;;15.50;95.40;;;;;;4907972;29;20157;-69
2022/03/16 12:00:12;;;;;;;14.65;10.65;;;15.50;95.20;;;;;;4884866;29;20138;-69
2022/03/16 12:02:38;;;;;;;18.10;9.63;;;15.40;94.80;;;;;;4915778;29;20043;-70
2022/03/16 12:05:07;;;;;;;13.65;9.60;;;15.20;94.20;;;;;;4915450;29;20054;-73
2022/03/16 12:07:35;;;;;;;14.95;10.70;;;15.20;94.50;;;;;;4916039;29;20494;-70
2022/03/16 12:10:10;;;;;;;13.93;9.48;;;15.30;94.90;;;;;;4915437;29;20127;-73
2022/03/16 12:12:54;;;;;;;12.75;10.43;;;15.50;95.10;;;;;;4900101;29;20048;-69
2022/03/16 12:15:32;;;;;;;15.38;10.10;;;15.70;94.90;;;;;;4915534;29;20563;-68
2022/03/16 12:17:58;;;;;;;15.00;10.32;;;15.50;93.90;;;;;;4915615;29;20055;-68
2022/03/16 12:20:34;;;;;;;11.82;9.30;;;15.50;94.00;;;;;;4915384;29;20051;-68
2022/03/16 12:23:07;;;;;;;13.47;9.70;;;15.40;94.30;;;;;;4915441;29;20492;-68
2022/03/16 12:25:46;;;;;;;13.85;9.75;;;15.30;93.70;;;;;;4915282;29;20229;-68
2022/03/16 12:31:04;;;;;;;13.38;9.38;;;15.30;92.80;;;;;;4915540;29;20048;-69
2022/03/16 12:33:45;;;;;;;12.02;9.00;;;15.30;93.20;;;;;;4915491;29;20051;-69
2022/03/16 12:36:14;;;;;;;12.30;9.15;;;15.40;93.60;;;;;;4915209;29;20043;-69
2022/03/16 12:38:55;;;;;;;11.25;8.30;;;15.40;93.00;;;;;;4888794;29;20484;-69
2022/03/16 12:44:12;;;;;;;12.40;9.05;;;15.50;92.80;;;;;;4915489;29;20055;-68
2022/03/16 12:46:53;;;;;;;13.25;9.55;;;15.60;92.40;;;;;;4915589;29;20047;-68
2022/03/16 12:49:21;;;;;;;12.43;8.85;;;15.50;92.80;;;;;;4914835;29;20044;-69
2022/03/16 12:51:56;;;;;;;14.10;9.57;;;15.70;93.00;;;;;;4892190;29;20046;-69
2022/03/16 12:54:29;;;;;;;14.57;9.65;;;15.70;92.60;;;;;;4899739;29;20127;-69
2022/03/16 12:57:15;;;;;;;14.98;9.25;;;15.60;92.50;;;;;;4908954;29;20160;-70
2022/03/16 12:59:46;;;;;;;12.82;9.07;;;15.40;92.50;;;;;;4915356;29;20057;-69
2022/03/16 13:02:12;;;;;;;17.58;10.65;;;15.60;93.10;;;;;;4915164;29;20499;-69
2022/03/16 13:04:40;;;;;;;15.60;9.93;;;15.60;92.50;;;;;;4914889;29;20060;-69
2022/03/16 13:07:09;;;;;;;13.98;10.27;;;15.80;93.30;;;;;;4914825;29;20040;-69